createdAt,value
2022-11-08T00:02:06.025Z,95743.44
2022-11-08T00:04:32.805Z,95746.22
2022-11-08T00:07:18.032Z,95746.13
2022-11-08T00:10:03.108Z,95739.03
2022-11-08T00:12:48.390Z,95747.09
2022-11-08T00:15:14.956Z,95744.28
2022-11-08T00:17:41.791Z,95740.84
2022-11-08T00:20:09.142Z,95740.59
2022-11-08T00:22:36.115Z,95733.69
2022-11-08T00:25:02.799Z,95732.53
2022-11-08T00:27:29.457Z,95726.97
2022-11-08T00:29:56.100Z,95727.34
2022-11-08T00:32:24.814Z,95728.13
2022-11-08T00:34:52.446Z,95728.47
2022-11-08T00:37:20.847Z,95732.50
2022-11-08T00:39:47.750Z,95737.16
2022-11-08T00:42:14.473Z,95727.34
2022-11-08T00:44:41.108Z,95731.13
2022-11-08T00:47:07.715Z,95722.75
2022-11-08T00:49:34.335Z,95730.19
2022-11-08T00:52:00.969Z,95733.63
2022-11-08T00:54:27.723Z,95723.84
2022-11-08T00:56:54.380Z,95719.50
2022-11-08T00:59:20.985Z,95714.75
2022-11-08T01:01:48.254Z,95723.09
2022-11-08T01:04:17.300Z,95717.19
2022-11-08T01:06:44.107Z,95717.34
2022-11-08T01:09:11.056Z,95722.19
2022-11-08T01:11:38.296Z,95715.66
2022-11-08T01:14:04.909Z,95706.88
2022-11-08T01:16:33.718Z,95706.69
2022-11-08T01:19:01.124Z,95695.00
2022-11-08T01:21:28.290Z,95701.81
2022-11-08T01:23:55.018Z,95698.25
2022-11-08T01:26:24.889Z,95696.34
2022-11-08T01:28:51.878Z,95693.75
2022-11-08T01:31:21.434Z,95696.41
2022-11-08T01:33:51.255Z,95692.38
2022-11-08T01:36:21.456Z,95686.03
2022-11-08T01:38:48.811Z,95689.78
2022-11-08T01:41:16.380Z,95677.38
2022-11-08T01:43:59.005Z,95678.72
2022-11-08T01:46:36.411Z,95670.94
2022-11-08T01:49:17.189Z,95658.44
2022-11-08T01:52:04.496Z,95655.75
2022-11-08T01:55:02.753Z,95658.09
2022-11-08T01:58:09.822Z,95656.78
2022-11-08T02:00:38.414Z,95653.72
2022-11-08T02:03:07.216Z,95656.03
2022-11-08T02:05:33.994Z,95656.31
2022-11-08T02:08:06.178Z,95645.09
2022-11-08T02:10:44.749Z,95640.59
2022-11-08T02:13:15.313Z,95638.19
2022-11-08T02:15:43.153Z,95640.59
2022-11-08T02:18:10.416Z,95637.50
2022-11-08T02:20:37.296Z,95622.97
2022-11-08T02:23:29.015Z,95630.22
2022-11-08T02:25:55.663Z,95617.13
2022-11-08T02:28:22.312Z,95615.03
2022-11-08T02:30:48.898Z,95611.75
2022-11-08T02:33:17.405Z,95612.13
2022-11-08T02:35:53.676Z,95602.31
2022-11-08T02:38:21.292Z,95603.34
2022-11-08T02:40:52.814Z,95610.81
2022-11-08T02:43:19.638Z,95601.81
2022-11-08T02:45:46.633Z,95601.28
2022-11-08T02:48:13.640Z,95594.34
2022-11-08T02:50:40.923Z,95607.53
2022-11-08T02:53:08.094Z,95591.34
2022-11-08T02:55:35.278Z,95597.75
2022-11-08T02:58:03.036Z,95593.84
2022-11-08T03:00:30.389Z,95593.25
2022-11-08T03:02:58.673Z,95592.56
2022-11-08T03:05:26.597Z,95583.97
2022-11-08T03:07:54.246Z,95587.53
2022-11-08T03:10:21.860Z,95578.97
2022-11-08T03:12:55.261Z,95592.97
2022-11-08T03:15:21.871Z,95573.78
2022-11-08T03:17:48.445Z,95583.91
2022-11-08T03:20:15.061Z,95584.53
2022-11-08T03:22:41.657Z,95588.84
2022-11-08T03:25:08.607Z,95583.94
2022-11-08T03:27:35.228Z,95587.44
2022-11-08T03:30:01.831Z,95584.16
2022-11-08T03:32:28.447Z,95584.47
2022-11-08T03:34:55.019Z,95591.38
2022-11-08T03:37:23.123Z,95589.94
2022-11-08T03:39:49.681Z,95593.09
2022-11-08T03:42:16.261Z,95589.94
2022-11-08T03:44:42.811Z,95596.53
2022-11-08T03:47:09.888Z,95594.59
2022-11-08T03:49:36.452Z,95603.13
2022-11-08T03:52:03.142Z,95600.78
2022-11-08T03:54:29.729Z,95593.56
2022-11-08T03:56:56.303Z,95591.97
2022-11-08T03:59:23.178Z,95591.78
2022-11-08T04:01:49.934Z,95592.41
2022-11-08T04:04:16.661Z,95600.16
2022-11-08T04:06:43.279Z,95598.97
2022-11-08T04:09:09.868Z,95607.09
2022-11-08T04:11:54.860Z,95604.50
2022-11-08T04:14:39.941Z,95599.63
2022-11-08T04:17:06.533Z,95598.41
2022-11-08T04:19:51.796Z,95592.88
2022-11-08T04:22:18.363Z,95592.13
2022-11-08T04:24:44.957Z,95591.44
2022-11-08T04:27:11.565Z,95586.13
2022-11-08T04:29:38.174Z,95587.75
2022-11-08T04:32:04.984Z,95588.84
2022-11-08T04:34:31.577Z,95586.34
2022-11-08T04:36:58.144Z,95586.34
2022-11-08T04:39:24.716Z,95585.34
2022-11-08T04:41:51.403Z,95586.22
2022-11-08T04:44:18.475Z,95579.25
2022-11-08T04:46:45.087Z,95571.03
2022-11-08T04:49:11.661Z,95580.41
2022-11-08T04:51:38.294Z,95567.13
2022-11-08T04:54:07.622Z,95562.00
2022-11-08T04:56:34.459Z,95560.03
2022-11-08T04:59:01.324Z,95559.78
2022-11-08T05:01:31.861Z,95560.75
2022-11-08T05:03:58.918Z,95554.66
2022-11-08T05:06:29.313Z,95540.06
2022-11-08T05:08:57.527Z,95551.38
2022-11-08T05:11:26.903Z,95546.31
2022-11-08T05:13:54.348Z,95544.44
2022-11-08T05:16:29.235Z,95547.72
2022-11-08T05:18:56.239Z,95543.75
2022-11-08T05:21:41.541Z,95541.34
2022-11-08T05:24:11.450Z,95539.00
2022-11-08T05:26:42.039Z,95540.97
2022-11-08T05:29:09.465Z,95536.41
2022-11-08T05:31:36.204Z,95538.06
2022-11-08T05:34:02.841Z,95537.28
2022-11-08T05:36:29.749Z,95534.00
2022-11-08T05:38:56.635Z,95541.59
2022-11-08T05:41:25.195Z,95533.19
2022-11-08T05:43:54.006Z,95531.22
2022-11-08T05:46:22.152Z,95536.31
2022-11-08T05:48:49.588Z,95534.00
2022-11-08T05:51:18.376Z,95523.06
2022-11-08T05:53:46.893Z,95532.81
2022-11-08T05:56:13.581Z,95530.47
2022-11-08T05:58:40.149Z,95524.41
2022-11-08T06:01:18.119Z,95524.22
2022-11-08T06:03:45.778Z,95524.09
2022-11-08T06:06:15.195Z,95517.00
2022-11-08T06:08:44.999Z,95518.91
2022-11-08T06:11:22.733Z,95519.22
2022-11-08T06:13:49.915Z,95515.03
2022-11-08T06:16:18.217Z,95518.28
2022-11-08T06:18:44.842Z,95516.34
2022-11-08T06:21:13.552Z,95517.88
2022-11-08T06:23:40.612Z,95519.94
2022-11-08T06:26:07.711Z,95519.88
2022-11-08T06:28:35.056Z,95522.97
2022-11-08T06:31:03.019Z,95518.72
2022-11-08T06:33:30.168Z,95525.75
2022-11-08T06:35:56.857Z,95528.00
2022-11-08T06:38:23.500Z,95530.91
2022-11-08T06:40:50.146Z,95530.84
2022-11-08T06:43:19.815Z,95531.81
2022-11-08T06:45:47.594Z,95541.53
2022-11-08T06:48:14.481Z,95541.09
2022-11-08T06:50:42.391Z,95540.44
2022-11-08T06:53:12.079Z,95548.72
2022-11-08T06:55:38.860Z,95534.97
2022-11-08T06:58:05.771Z,95538.28
2022-11-08T07:00:32.671Z,95550.50
2022-11-08T07:03:01.172Z,95543.28
2022-11-08T07:05:29.607Z,95544.72
2022-11-08T07:08:00.451Z,95544.44
2022-11-08T07:10:29.984Z,95547.91
2022-11-08T07:13:01.354Z,95538.38
2022-11-08T07:15:28.901Z,95543.28
2022-11-08T07:17:59.843Z,95534.03
2022-11-08T07:20:26.477Z,95528.88
2022-11-08T07:22:57.242Z,95521.63
2022-11-08T07:25:24.133Z,95511.44
2022-11-08T07:27:50.749Z,95508.53
2022-11-08T07:30:17.306Z,95504.59
2022-11-08T07:32:43.901Z,95501.53
2022-11-08T07:35:10.480Z,95500.50
2022-11-08T07:37:37.090Z,95493.66
2022-11-08T07:40:04.013Z,95504.16
2022-11-08T07:42:49.747Z,95504.16
2022-11-08T07:45:17.463Z,95505.59
2022-11-08T07:47:44.211Z,95512.41
2022-11-08T07:50:10.906Z,95524.22
2022-11-08T07:52:37.524Z,95528.41
2022-11-08T07:55:04.589Z,95537.94
2022-11-08T07:57:31.169Z,95546.22
2022-11-08T07:59:57.751Z,95553.44
2022-11-08T08:02:24.405Z,95551.47
2022-11-08T08:04:51.215Z,95558.28
2022-11-08T08:07:17.913Z,95551.53
2022-11-08T08:09:44.473Z,95552.19
2022-11-08T08:12:11.126Z,95548.41
2022-11-08T08:14:37.706Z,95553.84
2022-11-08T08:17:04.304Z,95561.22
2022-11-08T08:19:31.098Z,95554.84
2022-11-08T08:21:57.712Z,95558.25
2022-11-08T08:24:24.310Z,95564.88
2022-11-08T08:26:57.687Z,95564.06
2022-11-08T08:29:24.291Z,95561.16
2022-11-08T08:31:50.901Z,95555.69
2022-11-08T08:34:18.016Z,95554.19
2022-11-08T08:36:44.740Z,95552.47
2022-11-08T08:39:11.471Z,95555.97
2022-11-08T08:41:38.077Z,95558.03
2022-11-08T08:44:04.758Z,95552.28
2022-11-08T08:46:31.378Z,95550.69
2022-11-08T08:48:57.973Z,95560.03
2022-11-08T08:51:24.586Z,95555.16
2022-11-08T08:53:51.141Z,95553.97
2022-11-08T08:56:17.756Z,95552.28
2022-11-08T08:58:45.269Z,95552.56
2022-11-08T09:03:59.574Z,95546.97
2022-11-08T09:06:26.171Z,95549.97
2022-11-08T09:08:52.892Z,95552.34
2022-11-08T09:11:19.529Z,95560.69
2022-11-08T09:13:46.097Z,95557.13
2022-11-08T09:16:14.281Z,95550.78
2022-11-08T09:18:41.278Z,95558.03
2022-11-08T09:21:08.028Z,95562.03
2022-11-08T09:23:34.634Z,95560.63
2022-11-08T09:26:04.331Z,95560.56
2022-11-08T09:28:37.143Z,95567.22
2022-11-08T09:31:06.598Z,95561.31
2022-11-08T09:33:33.504Z,95567.66
2022-11-08T09:36:01.521Z,95562.09
2022-11-08T09:38:28.706Z,95564.34
2022-11-08T09:41:18.104Z,95552.06
2022-11-08T09:43:59.912Z,95565.50
2022-11-08T09:46:37.229Z,95561.66
2022-11-08T09:49:10.560Z,95568.75
2022-11-08T09:51:37.451Z,95571.91
2022-11-08T09:54:08.796Z,95567.41
2022-11-08T09:56:37.918Z,95571.91
2022-11-08T09:59:20.776Z,95577.41
2022-11-08T10:01:49.002Z,95572.63
2022-11-08T10:04:19.478Z,95567.81
2022-11-08T10:07:02.893Z,95564.81
2022-11-08T10:09:41.936Z,95562.72
2022-11-08T10:12:17.455Z,95570.03
2022-11-08T10:14:59.377Z,95567.53
2022-11-08T10:18:01.439Z,95563.59
2022-11-08T10:20:49.885Z,95565.03
2022-11-08T10:23:23.829Z,95565.97
2022-11-08T10:25:53.442Z,95566.59
2022-11-08T10:28:26.396Z,95567.75
2022-11-08T10:30:54.784Z,95561.00
2022-11-08T10:33:32.354Z,95560.91
2022-11-08T10:36:06.741Z,95557.88
2022-11-08T10:38:44.919Z,95558.09
2022-11-08T10:41:48.394Z,95554.31
2022-11-08T10:44:19.830Z,95542.75
2022-11-08T10:46:58.911Z,95542.44
2022-11-08T10:49:26.549Z,95542.13
2022-11-08T10:51:55.775Z,95543.44
2022-11-08T10:54:40.738Z,95543.66
2022-11-08T10:57:07.965Z,95533.06
2022-11-08T10:59:34.593Z,95536.13
2022-11-08T11:02:01.938Z,95536.38
2022-11-08T11:04:33.366Z,95531.00
2022-11-08T11:07:04.641Z,95528.13
2022-11-08T11:09:31.221Z,95524.88
2022-11-08T11:12:00.030Z,95524.50
2022-11-08T11:14:26.976Z,95531.34
2022-11-08T11:17:00.904Z,95524.72
2022-11-08T11:19:28.606Z,95527.19
2022-11-08T11:22:01.600Z,95526.13
2022-11-08T11:24:28.390Z,95522.09
2022-11-08T11:27:00.665Z,95522.09
2022-11-08T11:29:29.829Z,95519.75
2022-11-08T11:31:56.844Z,95526.44
2022-11-08T11:34:37.202Z,95524.97
2022-11-08T11:37:10.734Z,95519.75
2022-11-08T11:39:40.986Z,95520.94
2022-11-08T11:42:39.052Z,95521.53
2022-11-08T11:45:18.501Z,95515.00
2022-11-08T11:47:55.053Z,95515.66
2022-11-08T11:50:39.757Z,95513.66
2022-11-08T11:53:16.259Z,95518.91
2022-11-08T11:55:59.466Z,95503.50
2022-11-08T11:58:38.089Z,95505.03
2022-11-08T12:01:32.380Z,95508.44
2022-11-08T12:04:01.907Z,95510.44
2022-11-08T12:06:51.299Z,95502.69
2022-11-08T12:10:03.056Z,95500.88
2022-11-08T12:12:48.225Z,95498.88
2022-11-08T12:15:30.588Z,95493.63
2022-11-08T12:18:15.396Z,95498.88
2022-11-08T12:21:15.215Z,95501.78
2022-11-08T12:24:05.563Z,95503.19
2022-11-08T12:27:04.683Z,95499.47
2022-11-08T12:29:40.606Z,95504.09
2022-11-08T12:32:09.977Z,95503.84
2022-11-08T12:34:44.663Z,95494.22
2022-11-08T12:37:20.564Z,95497.16
2022-11-08T12:39:59.050Z,95492.03
2022-11-08T12:42:50.576Z,95492.44
2022-11-08T12:45:23.367Z,95486.16
2022-11-08T12:47:49.905Z,95478.25
2022-11-08T12:50:16.482Z,95484.06
2022-11-08T12:52:58.135Z,95476.75
2022-11-08T12:55:33.010Z,95477.13
2022-11-08T12:58:01.756Z,95469.44
2022-11-08T13:00:30.425Z,95468.41
2022-11-08T13:03:12.334Z,95474.00
2022-11-08T13:06:06.195Z,95471.06
2022-11-08T13:08:44.555Z,95477.91
2022-11-08T13:11:20.673Z,95463.69
2022-11-08T13:13:54.237Z,95468.53
2022-11-08T13:16:26.155Z,95473.25
2022-11-08T13:19:01.339Z,95468.81
2022-11-08T13:21:27.976Z,95461.97
2022-11-08T13:24:42.901Z,95474.00
2022-11-08T13:27:40.532Z,95462.91
2022-11-08T13:30:16.061Z,95465.75
2022-11-08T13:33:29.090Z,95457.94
2022-11-08T13:36:20.749Z,95459.25
2022-11-08T13:38:53.242Z,95455.31
2022-11-08T13:41:24.724Z,95455.91
2022-11-08T13:43:54.744Z,95453.94
2022-11-08T13:46:27.344Z,95461.19
2022-11-08T13:49:05.219Z,95455.06
2022-11-08T13:51:39.319Z,95447.88
2022-11-08T13:54:31.020Z,95453.13
2022-11-08T13:56:59.064Z,95454.25
2022-11-08T13:59:31.734Z,95450.13
2022-11-08T14:02:04.272Z,95454.44
2022-11-08T14:04:41.082Z,95453.00
2022-11-08T14:07:25.843Z,95455.81
2022-11-08T14:09:57.602Z,95456.69
2022-11-08T14:12:52.808Z,95457.44
2022-11-08T14:15:39.800Z,95460.06
2022-11-08T14:18:14.105Z,95454.03
2022-11-08T14:20:43.387Z,95459.06
2022-11-08T14:23:19.417Z,95446.50
2022-11-08T14:25:53.530Z,95450.81
2022-11-08T14:28:25.908Z,95453.03
2022-11-08T14:30:53.341Z,95453.44
2022-11-08T14:33:24.944Z,95452.63
2022-11-08T14:36:01.719Z,95453.28
2022-11-08T14:38:30.532Z,95454.22
2022-11-08T14:41:00.378Z,95451.84
2022-11-08T14:43:28.247Z,95444.69
2022-11-08T14:46:00.268Z,95448.75
2022-11-08T14:48:31.200Z,95448.38
2022-11-08T14:51:00.216Z,95446.63
2022-11-08T14:53:29.393Z,95437.81
2022-11-08T14:56:02.055Z,95448.03
2022-11-08T14:58:29.470Z,95446.00
2022-11-08T15:00:57.467Z,95446.19
2022-11-08T15:03:29.370Z,95439.25
2022-11-08T15:06:10.969Z,95432.63
2022-11-08T15:08:48.501Z,95430.94
2022-11-08T15:11:34.209Z,95428.13
2022-11-08T15:14:16.891Z,95444.25
2022-11-08T15:16:44.930Z,95432.75
2022-11-08T15:19:39.536Z,95439.28
2022-11-08T15:22:26.479Z,95438.53
2022-11-08T15:25:14.805Z,95443.31
2022-11-08T15:27:56.489Z,95445.63
2022-11-08T15:30:35.574Z,95438.84
2022-11-08T15:33:03.420Z,95442.84
2022-11-08T15:35:38.361Z,95444.78
2022-11-08T15:38:21.323Z,95449.34
2022-11-08T15:40:53.428Z,95442.09
2022-11-08T15:43:40.706Z,95443.38
2022-11-08T15:46:27.800Z,95442.34
2022-11-08T15:48:58.861Z,95446.88
2022-11-08T15:51:25.767Z,95440.06
2022-11-08T15:53:52.373Z,95435.84
2022-11-08T15:56:19.348Z,95442.59
2022-11-08T15:58:46.005Z,95436.22
2022-11-08T16:01:22.964Z,95438.81
2022-11-08T16:03:49.722Z,95440.81
2022-11-08T16:06:16.448Z,95434.56
2022-11-08T16:08:43.088Z,95436.44
2022-11-08T16:11:20.608Z,95434.56
2022-11-08T16:13:49.035Z,95437.56
2022-11-08T16:16:17.258Z,95441.63
2022-11-08T16:18:44.513Z,95439.50
2022-11-08T16:21:12.055Z,95449.66
2022-11-08T16:23:39.924Z,95445.69
2022-11-08T16:26:11.312Z,95443.03
2022-11-08T16:28:38.226Z,95448.38
2022-11-08T16:31:14.157Z,95436.06
2022-11-08T16:33:43.028Z,95439.63
2022-11-08T16:36:20.408Z,95438.47
2022-11-08T16:38:50.670Z,95419.63
2022-11-08T16:41:17.692Z,95428.31
2022-11-08T16:43:45.155Z,95424.03
2022-11-08T16:46:12.013Z,95414.44
2022-11-08T16:48:40.169Z,95423.47
2022-11-08T16:51:17.065Z,95423.06
2022-11-08T16:53:43.772Z,95425.91
2022-11-08T16:56:10.507Z,95432.22
2022-11-08T16:58:37.149Z,95424.91
2022-11-08T17:01:10.179Z,95432.44
2022-11-08T17:03:37.118Z,95434.28
2022-11-08T17:06:03.765Z,95440.72
2022-11-08T17:08:30.412Z,95436.72
2022-11-08T17:10:57.033Z,95435.59
2022-11-08T17:13:23.686Z,95439.28
2022-11-08T17:15:51.012Z,95437.00
2022-11-08T17:18:21.593Z,95441.44
2022-11-08T17:20:48.839Z,95445.81
2022-11-08T17:23:16.361Z,95449.44
2022-11-08T17:25:44.597Z,95447.44
2022-11-08T17:28:12.529Z,95446.72
2022-11-08T17:30:44.500Z,95459.53
2022-11-08T17:33:12.814Z,95446.00
2022-11-08T17:35:43.853Z,95451.59
2022-11-08T17:38:29.867Z,95450.34
2022-11-08T17:41:05.832Z,95456.28
2022-11-08T17:43:33.525Z,95449.56
2022-11-08T17:46:00.638Z,95447.28
2022-11-08T17:48:27.702Z,95447.44
2022-11-08T17:50:54.440Z,95446.78
2022-11-08T17:53:21.727Z,95453.63
2022-11-08T17:55:59.752Z,95461.72
2022-11-08T17:58:27.020Z,95459.84
2022-11-08T18:00:58.098Z,95461.13
2022-11-08T18:03:26.496Z,95454.34
2022-11-08T18:06:06.130Z,95450.59
2022-11-08T18:08:34.151Z,95450.13
2022-11-08T18:11:01.548Z,95448.47
2022-11-08T18:13:29.027Z,95447.03
2022-11-08T18:15:55.701Z,95451.13
2022-11-08T18:18:22.322Z,95448.84
2022-11-08T18:20:55.322Z,95449.63
2022-11-08T18:23:22.658Z,95444.75
2022-11-08T18:25:50.394Z,95446.91
2022-11-08T18:28:17.544Z,95455.00
2022-11-08T18:30:47.716Z,95455.91
2022-11-08T18:33:16.089Z,95454.25
2022-11-08T18:35:43.511Z,95460.31
2022-11-08T18:38:11.591Z,95460.22
2022-11-08T18:40:38.378Z,95466.03
2022-11-08T18:43:05.814Z,95466.56
2022-11-08T18:45:32.581Z,95472.13
2022-11-08T18:47:59.159Z,95462.47
2022-11-08T18:50:25.767Z,95473.94
2022-11-08T18:52:52.396Z,95463.13
2022-11-08T18:55:19.316Z,95469.88
2022-11-08T18:57:46.145Z,95468.38
2022-11-08T19:00:13.389Z,95469.97
2022-11-08T19:02:40.070Z,95464.16
2022-11-08T19:05:06.869Z,95473.28
2022-11-08T19:07:33.489Z,95483.06
2022-11-08T19:10:00.220Z,95488.63
2022-11-08T19:12:29.819Z,95480.91
2022-11-08T19:14:56.533Z,95479.88
2022-11-08T19:17:23.147Z,95478.00
2022-11-08T19:19:49.796Z,95466.13
2022-11-08T19:22:16.498Z,95473.31
2022-11-08T19:24:43.108Z,95462.31
2022-11-08T19:27:09.736Z,95466.84
2022-11-08T19:29:36.455Z,95458.09
2022-11-08T19:32:03.421Z,95454.25
2022-11-08T19:34:31.279Z,95443.69
2022-11-08T19:36:57.880Z,95454.25
2022-11-08T19:39:24.601Z,95459.91
2022-11-08T19:41:51.365Z,95461.63
2022-11-08T19:44:18.176Z,95460.34
2022-11-08T19:46:44.814Z,95463.56
2022-11-08T19:49:11.473Z,95457.47
2022-11-08T19:51:38.333Z,95458.38
2022-11-08T19:54:12.493Z,95458.03
2022-11-08T19:59:25.665Z,95457.28
2022-11-08T20:01:52.393Z,95459.03
2022-11-08T20:04:19.418Z,95468.59
2022-11-08T20:06:46.487Z,95462.56
2022-11-08T20:09:13.369Z,95473.00
2022-11-08T20:11:41.328Z,95466.53
2022-11-08T20:14:08.767Z,95458.91
2022-11-08T20:16:40.025Z,95465.22
2022-11-08T20:19:14.978Z,95473.81
2022-11-08T20:21:43.987Z,95466.81
2022-11-08T20:24:11.074Z,95471.59
2022-11-08T20:26:39.139Z,95466.59
2022-11-08T20:29:07.296Z,95464.91
2022-11-08T20:31:34.016Z,95462.47
2022-11-08T20:34:01.680Z,95462.28
2022-11-08T20:36:31.853Z,95460.16
2022-11-08T20:39:06.547Z,95462.31
2022-11-08T20:41:35.489Z,95457.91
2022-11-08T20:44:02.691Z,95447.34
2022-11-08T20:46:29.658Z,95451.00
2022-11-08T20:49:00.153Z,95462.16
2022-11-08T20:51:28.382Z,95456.59
2022-11-08T20:53:55.966Z,95461.69
2022-11-08T20:56:23.498Z,95465.25
2022-11-08T20:58:51.663Z,95465.41
2022-11-08T21:01:20.869Z,95462.41
2022-11-08T21:03:48.078Z,95464.63
2022-11-08T21:06:17.229Z,95459.56
2022-11-08T21:09:07.481Z,95466.91
2022-11-08T21:11:32.537Z,95466.97
2022-11-08T21:13:59.199Z,95461.03
2022-11-08T21:16:30.293Z,95461.19
2022-11-08T21:18:58.712Z,95462.03
2022-11-08T21:21:26.118Z,95453.63
2022-11-08T21:23:54.338Z,95444.66
2022-11-08T21:26:21.055Z,95452.88
2022-11-08T21:28:47.784Z,95454.41
2022-11-08T21:31:14.686Z,95450.53
2022-11-08T21:33:41.529Z,95440.47
2022-11-08T21:36:09.173Z,95447.56
2022-11-08T21:38:40.217Z,95448.63
2022-11-08T21:41:09.144Z,95454.19
2022-11-08T21:43:45.158Z,95450.09
2022-11-08T21:46:13.097Z,95448.75
2022-11-08T21:48:42.011Z,95444.03
2022-11-08T21:51:08.681Z,95443.28
2022-11-08T21:53:37.010Z,95441.22
2022-11-08T21:56:07.667Z,95446.88
2022-11-08T21:58:34.240Z,95444.56
2022-11-08T22:01:05.254Z,95451.31
2022-11-08T22:03:32.199Z,95448.06
2022-11-08T22:05:58.821Z,95442.53
2022-11-08T22:08:25.528Z,95450.25
2022-11-08T22:10:52.129Z,95449.81
2022-11-08T22:13:18.756Z,95451.91
2022-11-08T22:15:45.423Z,95461.47
2022-11-08T22:18:16.305Z,95460.59
2022-11-08T22:21:08.339Z,95463.63
2022-11-08T22:23:35.638Z,95470.47
2022-11-08T22:26:02.876Z,95464.88
2022-11-08T22:28:29.558Z,95465.50
2022-11-08T22:30:56.160Z,95466.00
2022-11-08T22:33:22.784Z,95473.22
2022-11-08T22:35:49.722Z,95476.28
2022-11-08T22:38:17.272Z,95472.66
2022-11-08T22:40:45.876Z,95467.66
2022-11-08T22:43:12.902Z,95460.69
2022-11-08T22:45:43.629Z,95459.25
2022-11-08T22:48:10.954Z,95456.50
2022-11-08T22:50:38.363Z,95457.00
2022-11-08T22:53:05.625Z,95448.28
2022-11-08T22:55:32.267Z,95445.66
2022-11-08T22:57:58.927Z,95455.09
2022-11-08T23:00:25.577Z,95449.31
2022-11-08T23:02:52.206Z,95451.03
2022-11-08T23:05:18.801Z,95452.91
2022-11-08T23:07:45.407Z,95452.06
2022-11-08T23:10:12.057Z,95439.41
2022-11-08T23:12:57.501Z,95442.06
2022-11-08T23:15:53.389Z,95442.13
2022-11-08T23:18:21.022Z,95442.44
2022-11-08T23:21:06.479Z,95438.25
2022-11-08T23:23:51.675Z,95437.47
2022-11-08T23:26:38.340Z,95432.97
2022-11-08T23:29:23.522Z,95445.09
2022-11-08T23:31:50.086Z,95439.09
2022-11-08T23:34:16.731Z,95443.38
2022-11-08T23:36:43.326Z,95438.06
2022-11-08T23:39:09.894Z,95446.81
2022-11-08T23:41:54.844Z,95441.50
2022-11-08T23:44:24.231Z,95452.88
2022-11-08T23:46:55.788Z,95444.69
2022-11-08T23:49:22.245Z,95448.63
2022-11-08T23:51:48.932Z,95455.25
2022-11-08T23:54:16.043Z,95452.16
2022-11-08T23:56:42.902Z,95461.75
2022-11-08T23:59:09.667Z,95456.03
